sensor_id;sensor_type;location;lat;lon;timestamp;temperature;humidity
9271;DHT22;4673;53.458;9.940;2023-06-14T00:00:19;14.90;62.00
9271;DHT22;4673;53.458;9.940;2023-06-14T00:02:45;14.90;62.20
9271;DHT22;4673;53.458;9.940;2023-06-14T00:05:11;14.90;62.30
9271;DHT22;4673;53.458;9.940;2023-06-14T00:07:41;14.90;62.70
9271;DHT22;4673;53.458;9.940;2023-06-14T00:10:14;14.80;63.00
9271;DHT22;4673;53.458;9.940;2023-06-14T00:12:40;14.80;63.30
9271;DHT22;4673;53.458;9.940;2023-06-14T00:15:06;14.80;63.40
9271;DHT22;4673;53.458;9.940;2023-06-14T00:17:32;14.80;63.80
9271;DHT22;4673;53.458;9.940;2023-06-14T00:19:58;14.70;64.20
9271;DHT22;4673;53.458;9.940;2023-06-14T00:22:24;14.60;64.60
9271;DHT22;4673;53.458;9.940;2023-06-14T00:24:53;14.50;65.00
9271;DHT22;4673;53.458;9.940;2023-06-14T00:27:19;14.50;65.30
9271;DHT22;4673;53.458;9.940;2023-06-14T00:29:45;14.50;65.70
9271;DHT22;4673;53.458;9.940;2023-06-14T00:32:11;14.50;65.80
9271;DHT22;4673;53.458;9.940;2023-06-14T00:34:36;14.40;66.10
9271;DHT22;4673;53.458;9.940;2023-06-14T00:37:02;14.40;66.50
9271;DHT22;4673;53.458;9.940;2023-06-14T00:39:28;14.40;66.70
9271;DHT22;4673;53.458;9.940;2023-06-14T00:41:53;14.40;67.00
9271;DHT22;4673;53.458;9.940;2023-06-14T00:44:19;14.30;67.30
9271;DHT22;4673;53.458;9.940;2023-06-14T00:46:45;14.30;67.60
9271;DHT22;4673;53.458;9.940;2023-06-14T00:49:14;14.20;67.70
9271;DHT22;4673;53.458;9.940;2023-06-14T00:51:41;14.20;67.90
9271;DHT22;4673;53.458;9.940;2023-06-14T00:54:07;14.20;68.40
9271;DHT22;4673;53.458;9.940;2023-06-14T00:56:32;14.20;68.80
9271;DHT22;4673;53.458;9.940;2023-06-14T00:58:58;14.20;68.80
9271;DHT22;4673;53.458;9.940;2023-06-14T01:01:24;14.10;69.10
9271;DHT22;4673;53.458;9.940;2023-06-14T01:03:50;14.00;69.30
9271;DHT22;4673;53.458;9.940;2023-06-14T01:09:35;13.90;70.30
9271;DHT22;4673;53.458;9.940;2023-06-14T01:12:24;14.00;70.60
9271;DHT22;4673;53.458;9.940;2023-06-14T01:14:54;13.80;70.50
9271;DHT22;4673;53.458;9.940;2023-06-14T01:17:22;13.80;70.80
9271;DHT22;4673;53.458;9.940;2023-06-14T01:19:48;13.70;71.30
9271;DHT22;4673;53.458;9.940;2023-06-14T01:22:14;13.70;71.90
9271;DHT22;4673;53.458;9.940;2023-06-14T01:24:40;13.70;72.50
9271;DHT22;4673;53.458;9.940;2023-06-14T01:27:11;13.60;72.50
9271;DHT22;4673;53.458;9.940;2023-06-14T01:29:38;13.70;73.10
9271;DHT22;4673;53.458;9.940;2023-06-14T01:32:04;13.60;73.20
9271;DHT22;4673;53.458;9.940;2023-06-14T01:34:30;13.50;73.70
9271;DHT22;4673;53.458;9.940;2023-06-14T01:36:57;13.50;74.20
9271;DHT22;4673;53.458;9.940;2023-06-14T01:39:24;13.40;74.70
9271;DHT22;4673;53.458;9.940;2023-06-14T01:41:50;13.50;75.10
9271;DHT22;4673;53.458;9.940;2023-06-14T01:44:17;13.40;75.00
9271;DHT22;4673;53.458;9.940;2023-06-14T01:46:43;13.40;75.50
9271;DHT22;4673;53.458;9.940;2023-06-14T01:49:11;13.30;76.00
9271;DHT22;4673;53.458;9.940;2023-06-14T01:51:36;13.30;76.60
9271;DHT22;4673;53.458;9.940;2023-06-14T01:54:02;13.30;76.30
9271;DHT22;4673;53.458;9.940;2023-06-14T01:56:27;13.30;76.60
9271;DHT22;4673;53.458;9.940;2023-06-14T01:58:53;13.30;76.70
9271;DHT22;4673;53.458;9.940;2023-06-14T02:01:19;13.20;77.10
9271;DHT22;4673;53.458;9.940;2023-06-14T02:03:47;13.20;77.30
9271;DHT22;4673;53.458;9.940;2023-06-14T02:06:13;13.20;77.50
9271;DHT22;4673;53.458;9.940;2023-06-14T02:08:41;13.20;77.80
9271;DHT22;4673;53.458;9.940;2023-06-14T02:11:08;13.10;77.90
9271;DHT22;4673;53.458;9.940;2023-06-14T02:13:33;13.10;78.20
9271;DHT22;4673;53.458;9.940;2023-06-14T02:16:00;13.10;78.40
9271;DHT22;4673;53.458;9.940;2023-06-14T02:18:25;13.10;78.70
9271;DHT22;4673;53.458;9.940;2023-06-14T02:20:51;13.10;78.70
9271;DHT22;4673;53.458;9.940;2023-06-14T02:23:17;13.00;78.80
9271;DHT22;4673;53.458;9.940;2023-06-14T02:25:43;13.00;79.00
9271;DHT22;4673;53.458;9.940;2023-06-14T02:28:10;12.90;79.40
9271;DHT22;4673;53.458;9.940;2023-06-14T02:30:36;12.90;79.90
9271;DHT22;4673;53.458;9.940;2023-06-14T02:33:01;12.90;80.10
9271;DHT22;4673;53.458;9.940;2023-06-14T02:35:27;12.90;80.40
9271;DHT22;4673;53.458;9.940;2023-06-14T02:37:53;12.90;80.80
9271;DHT22;4673;53.458;9.940;2023-06-14T02:40:19;12.80;80.80
9271;DHT22;4673;53.458;9.940;2023-06-14T02:42:45;12.90;81.10
9271;DHT22;4673;53.458;9.940;2023-06-14T02:45:11;12.90;81.50
9271;DHT22;4673;53.458;9.940;2023-06-14T02:47:37;12.90;81.60
9271;DHT22;4673;53.458;9.940;2023-06-14T02:50:02;12.90;81.70
9271;DHT22;4673;53.458;9.940;2023-06-14T02:52:28;12.90;81.60
9271;DHT22;4673;53.458;9.940;2023-06-14T02:54:54;12.90;81.80
9271;DHT22;4673;53.458;9.940;2023-06-14T02:57:21;12.90;82.00
9271;DHT22;4673;53.458;9.940;2023-06-14T02:59:47;12.90;82.00
9271;DHT22;4673;53.458;9.940;2023-06-14T03:02:12;12.90;82.20
9271;DHT22;4673;53.458;9.940;2023-06-14T03:04:38;13.00;82.30
9271;DHT22;4673;53.458;9.940;2023-06-14T03:07:04;13.00;82.30
9271;DHT22;4673;53.458;9.940;2023-06-14T03:09:39;13.10;82.20
9271;DHT22;4673;53.458;9.940;2023-06-14T03:12:06;13.10;82.30
9271;DHT22;4673;53.458;9.940;2023-06-14T03:14:32;13.10;82.20
9271;DHT22;4673;53.458;9.940;2023-06-14T03:16:58;13.10;82.30
9271;DHT22;4673;53.458;9.940;2023-06-14T03:19:24;13.10;82.20
9271;DHT22;4673;53.458;9.940;2023-06-14T03:21:52;13.10;82.50
9271;DHT22;4673;53.458;9.940;2023-06-14T03:24:17;13.00;82.30
9271;DHT22;4673;53.458;9.940;2023-06-14T03:26:43;13.00;82.60
9271;DHT22;4673;53.458;9.940;2023-06-14T03:29:09;13.10;82.90
9271;DHT22;4673;53.458;9.940;2023-06-14T03:31:35;13.10;83.00
9271;DHT22;4673;53.458;9.940;2023-06-14T03:34:03;13.20;82.90
9271;DHT22;4673;53.458;9.940;2023-06-14T03:36:29;13.20;83.00
9271;DHT22;4673;53.458;9.940;2023-06-14T03:38:54;13.50;83.10
9271;DHT22;4673;53.458;9.940;2023-06-14T03:41:20;13.60;82.20
9271;DHT22;4673;53.458;9.940;2023-06-14T03:43:46;13.80;81.60
9271;DHT22;4673;53.458;9.940;2023-06-14T03:46:12;13.90;80.90
9271;DHT22;4673;53.458;9.940;2023-06-14T03:48:37;14.00;80.10
9271;DHT22;4673;53.458;9.940;2023-06-14T03:51:04;14.10;79.60
9271;DHT22;4673;53.458;9.940;2023-06-14T03:53:30;14.10;79.00
9271;DHT22;4673;53.458;9.940;2023-06-14T03:55:56;14.20;78.70
9271;DHT22;4673;53.458;9.940;2023-06-14T03:58:23;14.30;78.50
9271;DHT22;4673;53.458;9.940;2023-06-14T04:00:48;14.40;77.90
9271;DHT22;4673;53.458;9.940;2023-06-14T04:03:14;14.40;77.40
9271;DHT22;4673;53.458;9.940;2023-06-14T04:05:41;14.40;77.40
9271;DHT22;4673;53.458;9.940;2023-06-14T04:08:10;14.50;77.40
9271;DHT22;4673;53.458;9.940;2023-06-14T04:10:35;14.50;77.20
9271;DHT22;4673;53.458;9.940;2023-06-14T04:13:01;14.50;77.20
9271;DHT22;4673;53.458;9.940;2023-06-14T04:15:27;14.60;77.10
9271;DHT22;4673;53.458;9.940;2023-06-14T04:17:55;14.70;76.90
9271;DHT22;4673;53.458;9.940;2023-06-14T04:20:22;14.70;76.50
9271;DHT22;4673;53.458;9.940;2023-06-14T04:22:50;14.80;76.10
9271;DHT22;4673;53.458;9.940;2023-06-14T04:25:16;14.80;75.90
9271;DHT22;4673;53.458;9.940;2023-06-14T04:27:42;14.80;75.50
9271;DHT22;4673;53.458;9.940;2023-06-14T04:30:08;14.80;75.40
9271;DHT22;4673;53.458;9.940;2023-06-14T04:32:33;15.00;75.70
9271;DHT22;4673;53.458;9.940;2023-06-14T04:35:00;15.10;75.20
9271;DHT22;4673;53.458;9.940;2023-06-14T04:37:29;15.30;74.60
9271;DHT22;4673;53.458;9.940;2023-06-14T04:39:56;15.40;73.60
9271;DHT22;4673;53.458;9.940;2023-06-14T04:42:22;15.50;73.30
9271;DHT22;4673;53.458;9.940;2023-06-14T04:44:51;15.60;72.90
9271;DHT22;4673;53.458;9.940;2023-06-14T04:47:17;15.70;72.50
9271;DHT22;4673;53.458;9.940;2023-06-14T04:49:43;15.80;72.40
9271;DHT22;4673;53.458;9.940;2023-06-14T04:52:10;16.10;71.60
9271;DHT22;4673;53.458;9.940;2023-06-14T04:54:39;16.20;69.70
9271;DHT22;4673;53.458;9.940;2023-06-14T04:57:07;16.20;69.10
9271;DHT22;4673;53.458;9.940;2023-06-14T04:59:34;16.30;69.10
9271;DHT22;4673;53.458;9.940;2023-06-14T05:02:01;16.40;68.30
9271;DHT22;4673;53.458;9.940;2023-06-14T05:04:27;16.30;68.20
9271;DHT22;4673;53.458;9.940;2023-06-14T05:06:53;16.30;68.20
9271;DHT22;4673;53.458;9.940;2023-06-14T05:09:20;16.30;67.80
9271;DHT22;4673;53.458;9.940;2023-06-14T05:11:46;16.10;68.40
9271;DHT22;4673;53.458;9.940;2023-06-14T05:14:13;16.00;69.30
9271;DHT22;4673;53.458;9.940;2023-06-14T05:16:39;16.10;69.50
9271;DHT22;4673;53.458;9.940;2023-06-14T05:19:06;16.00;69.20
9271;DHT22;4673;53.458;9.940;2023-06-14T05:21:32;15.80;69.40
9271;DHT22;4673;53.458;9.940;2023-06-14T05:23:59;15.80;70.20
9271;DHT22;4673;53.458;9.940;2023-06-14T05:26:24;15.90;71.00
9271;DHT22;4673;53.458;9.940;2023-06-14T05:28:57;16.00;70.90
9271;DHT22;4673;53.458;9.940;2023-06-14T05:31:26;16.10;69.70
9271;DHT22;4673;53.458;9.940;2023-06-14T05:33:52;16.20;68.90
9271;DHT22;4673;53.458;9.940;2023-06-14T05:36:21;16.30;68.20
9271;DHT22;4673;53.458;9.940;2023-06-14T05:38:47;16.40;67.80
9271;DHT22;4673;53.458;9.940;2023-06-14T05:41:13;16.60;67.40
9271;DHT22;4673;53.458;9.940;2023-06-14T05:43:39;16.60;66.20
9271;DHT22;4673;53.458;9.940;2023-06-14T05:46:05;16.70;66.50
9271;DHT22;4673;53.458;9.940;2023-06-14T05:48:31;16.80;65.50
9271;DHT22;4673;53.458;9.940;2023-06-14T05:50:56;16.80;64.90
9271;DHT22;4673;53.458;9.940;2023-06-14T05:53:22;16.80;65.40
9271;DHT22;4673;53.458;9.940;2023-06-14T05:55:49;17.00;64.70
9271;DHT22;4673;53.458;9.940;2023-06-14T05:58:17;17.00;64.00
9271;DHT22;4673;53.458;9.940;2023-06-14T06:00:42;17.00;63.80
9271;DHT22;4673;53.458;9.940;2023-06-14T06:03:08;17.20;63.80
9271;DHT22;4673;53.458;9.940;2023-06-14T06:05:34;17.20;63.30
9271;DHT22;4673;53.458;9.940;2023-06-14T06:08:00;17.30;62.60
9271;DHT22;4673;53.458;9.940;2023-06-14T06:10:26;17.30;61.70
9271;DHT22;4673;53.458;9.940;2023-06-14T06:12:52;17.30;61.90
9271;DHT22;4673;53.458;9.940;2023-06-14T06:15:20;17.20;62.20
9271;DHT22;4673;53.458;9.940;2023-06-14T06:17:46;17.20;63.00
9271;DHT22;4673;53.458;9.940;2023-06-14T06:20:12;17.20;62.90
9271;DHT22;4673;53.458;9.940;2023-06-14T06:22:38;17.30;62.90
9271;DHT22;4673;53.458;9.940;2023-06-14T06:25:04;17.40;62.70
9271;DHT22;4673;53.458;9.940;2023-06-14T06:27:30;17.60;61.80
9271;DHT22;4673;53.458;9.940;2023-06-14T06:29:56;17.60;60.70
9271;DHT22;4673;53.458;9.940;2023-06-14T06:32:21;17.70;60.10
9271;DHT22;4673;53.458;9.940;2023-06-14T06:34:47;17.70;60.60
9271;DHT22;4673;53.458;9.940;2023-06-14T06:37:13;17.70;60.50
9271;DHT22;4673;53.458;9.940;2023-06-14T06:39:39;17.70;58.80
9271;DHT22;4673;53.458;9.940;2023-06-14T06:42:05;17.80;58.90
9271;DHT22;4673;53.458;9.940;2023-06-14T06:44:32;17.80;58.40
9271;DHT22;4673;53.458;9.940;2023-06-14T06:46:58;17.90;56.90
9271;DHT22;4673;53.458;9.940;2023-06-14T06:49:24;17.90;55.70
9271;DHT22;4673;53.458;9.940;2023-06-14T06:52:06;17.90;53.50
9271;DHT22;4673;53.458;9.940;2023-06-14T06:54:32;17.90;52.60
9271;DHT22;4673;53.458;9.940;2023-06-14T06:56:58;18.00;52.60
9271;DHT22;4673;53.458;9.940;2023-06-14T06:59:24;18.00;52.30
9271;DHT22;4673;53.458;9.940;2023-06-14T07:01:50;18.10;52.30
9271;DHT22;4673;53.458;9.940;2023-06-14T07:04:16;18.10;51.20
9271;DHT22;4673;53.458;9.940;2023-06-14T07:06:42;18.20;50.20
9271;DHT22;4673;53.458;9.940;2023-06-14T07:09:08;18.30;49.60
9271;DHT22;4673;53.458;9.940;2023-06-14T07:11:38;18.30;49.00
9271;DHT22;4673;53.458;9.940;2023-06-14T07:14:04;18.30;49.00
9271;DHT22;4673;53.458;9.940;2023-06-14T07:16:30;18.30;48.60
9271;DHT22;4673;53.458;9.940;2023-06-14T07:18:56;18.30;47.80
9271;DHT22;4673;53.458;9.940;2023-06-14T07:21:21;18.30;47.30
9271;DHT22;4673;53.458;9.940;2023-06-14T07:23:47;18.30;48.80
9271;DHT22;4673;53.458;9.940;2023-06-14T07:26:13;18.30;49.40
9271;DHT22;4673;53.458;9.940;2023-06-14T07:28:39;18.40;48.10
9271;DHT22;4673;53.458;9.940;2023-06-14T07:31:04;18.50;47.40
9271;DHT22;4673;53.458;9.940;2023-06-14T07:33:30;18.50;47.10
9271;DHT22;4673;53.458;9.940;2023-06-14T07:35:56;18.60;46.60
9271;DHT22;4673;53.458;9.940;2023-06-14T07:38:22;18.70;47.40
9271;DHT22;4673;53.458;9.940;2023-06-14T07:40:48;18.70;46.20
9271;DHT22;4673;53.458;9.940;2023-06-14T07:43:13;18.80;43.10
9271;DHT22;4673;53.458;9.940;2023-06-14T07:45:39;18.90;43.80
9271;DHT22;4673;53.458;9.940;2023-06-14T07:48:05;19.00;42.00
9271;DHT22;4673;53.458;9.940;2023-06-14T07:50:31;19.00;42.00
9271;DHT22;4673;53.458;9.940;2023-06-14T07:52:56;19.10;42.30
9271;DHT22;4673;53.458;9.940;2023-06-14T07:55:22;19.10;41.30
9271;DHT22;4673;53.458;9.940;2023-06-14T07:57:47;19.20;40.80
9271;DHT22;4673;53.458;9.940;2023-06-14T08:00:13;19.30;40.50
9271;DHT22;4673;53.458;9.940;2023-06-14T08:02:44;19.40;39.80
9271;DHT22;4673;53.458;9.940;2023-06-14T08:05:13;19.40;40.20
9271;DHT22;4673;53.458;9.940;2023-06-14T08:07:39;19.60;39.80
9271;DHT22;4673;53.458;9.940;2023-06-14T08:10:06;19.70;38.50
9271;DHT22;4673;53.458;9.940;2023-06-14T08:12:33;19.70;36.00
9271;DHT22;4673;53.458;9.940;2023-06-14T08:15:00;19.80;36.50
9271;DHT22;4673;53.458;9.940;2023-06-14T08:17:25;19.80;36.30
9271;DHT22;4673;53.458;9.940;2023-06-14T08:19:52;19.90;35.90
9271;DHT22;4673;53.458;9.940;2023-06-14T08:22:20;20.00;35.20
9271;DHT22;4673;53.458;9.940;2023-06-14T08:24:47;20.00;34.90
9271;DHT22;4673;53.458;9.940;2023-06-14T08:27:13;20.00;34.00
9271;DHT22;4673;53.458;9.940;2023-06-14T08:29:39;20.00;34.00
9271;DHT22;4673;53.458;9.940;2023-06-14T08:32:06;20.10;34.90
9271;DHT22;4673;53.458;9.940;2023-06-14T08:34:32;20.20;34.30
9271;DHT22;4673;53.458;9.940;2023-06-14T08:36:57;20.30;33.60
9271;DHT22;4673;53.458;9.940;2023-06-14T08:39:23;20.40;34.30
9271;DHT22;4673;53.458;9.940;2023-06-14T08:41:50;20.60;33.90
9271;DHT22;4673;53.458;9.940;2023-06-14T08:44:17;20.70;33.50
9271;DHT22;4673;53.458;9.940;2023-06-14T08:46:43;20.80;30.40
9271;DHT22;4673;53.458;9.940;2023-06-14T08:49:12;20.90;30.00
9271;DHT22;4673;53.458;9.940;2023-06-14T08:51:38;21.00;29.10
9271;DHT22;4673;53.458;9.940;2023-06-14T08:54:06;21.00;29.70
9271;DHT22;4673;53.458;9.940;2023-06-14T08:56:32;21.20;28.60
9271;DHT22;4673;53.458;9.940;2023-06-14T08:58:59;21.40;27.70
9271;DHT22;4673;53.458;9.940;2023-06-14T09:01:36;21.40;26.90
9271;DHT22;4673;53.458;9.940;2023-06-14T09:04:02;21.50;26.90
9271;DHT22;4673;53.458;9.940;2023-06-14T09:06:31;21.60;26.80
9271;DHT22;4673;53.458;9.940;2023-06-14T09:08:57;21.70;26.10
9271;DHT22;4673;53.458;9.940;2023-06-14T09:11:22;21.80;25.40
9271;DHT22;4673;53.458;9.940;2023-06-14T09:13:49;21.80;23.50
9271;DHT22;4673;53.458;9.940;2023-06-14T09:16:15;21.80;24.00
9271;DHT22;4673;53.458;9.940;2023-06-14T09:18:46;22.00;24.80
9271;DHT22;4673;53.458;9.940;2023-06-14T09:21:16;22.10;23.70
9271;DHT22;4673;53.458;9.940;2023-06-14T09:23:46;22.20;23.70
9271;DHT22;4673;53.458;9.940;2023-06-14T09:26:18;22.30;22.10
9271;DHT22;4673;53.458;9.940;2023-06-14T09:28:49;22.40;21.80
9271;DHT22;4673;53.458;9.940;2023-06-14T09:31:19;22.30;20.00
9271;DHT22;4673;53.458;9.940;2023-06-14T09:33:47;22.30;20.30
9271;DHT22;4673;53.458;9.940;2023-06-14T09:36:17;22.40;19.90
9271;DHT22;4673;53.458;9.940;2023-06-14T09:38:55;22.50;18.40
9271;DHT22;4673;53.458;9.940;2023-06-14T09:41:34;22.60;17.50
9271;DHT22;4673;53.458;9.940;2023-06-14T09:44:01;22.80;17.40
9271;DHT22;4673;53.458;9.940;2023-06-14T09:46:28;22.90;16.50
9271;DHT22;4673;53.458;9.940;2023-06-14T09:48:55;22.90;16.50
9271;DHT22;4673;53.458;9.940;2023-06-14T09:51:23;23.00;17.10
9271;DHT22;4673;53.458;9.940;2023-06-14T09:53:49;23.10;17.20
9271;DHT22;4673;53.458;9.940;2023-06-14T09:56:29;23.40;16.70
9271;DHT22;4673;53.458;9.940;2023-06-14T09:58:56;23.70;15.80
9271;DHT22;4673;53.458;9.940;2023-06-14T10:01:30;23.90;13.20
9271;DHT22;4673;53.458;9.940;2023-06-14T10:04:00;24.00;12.80
9271;DHT22;4673;53.458;9.940;2023-06-14T10:06:28;24.20;12.40
9271;DHT22;4673;53.458;9.940;2023-06-14T10:08:57;24.20;11.80
9271;DHT22;4673;53.458;9.940;2023-06-14T10:11:25;23.90;11.90
9271;DHT22;4673;53.458;9.940;2023-06-14T10:13:51;24.00;12.10
9271;DHT22;4673;53.458;9.940;2023-06-14T10:16:27;23.90;11.20
9271;DHT22;4673;53.458;9.940;2023-06-14T10:21:41;24.50;10.80
9271;DHT22;4673;53.458;9.940;2023-06-14T10:24:13;24.60;9.10
9271;DHT22;4673;53.458;9.940;2023-06-14T10:26:51;24.60;9.20
9271;DHT22;4673;53.458;9.940;2023-06-14T10:29:17;24.60;8.80
9271;DHT22;4673;53.458;9.940;2023-06-14T10:31:50;24.60;8.30
9271;DHT22;4673;53.458;9.940;2023-06-14T10:34:28;24.70;8.20
9271;DHT22;4673;53.458;9.940;2023-06-14T10:39:26;25.00;8.50
9271;DHT22;4673;53.458;9.940;2023-06-14T10:41:53;25.20;7.70
9271;DHT22;4673;53.458;9.940;2023-06-14T10:46:49;25.20;7.20
9271;DHT22;4673;53.458;9.940;2023-06-14T10:49:18;25.10;7.20
9271;DHT22;4673;53.458;9.940;2023-06-14T10:51:51;25.00;7.50
9271;DHT22;4673;53.458;9.940;2023-06-14T10:54:17;24.80;6.80
9271;DHT22;4673;53.458;9.940;2023-06-14T10:56:50;24.40;7.60
9271;DHT22;4673;53.458;9.940;2023-06-14T10:59:17;24.10;8.10
9271;DHT22;4673;53.458;9.940;2023-06-14T11:02:09;23.90;8.80
9271;DHT22;4673;53.458;9.940;2023-06-14T11:04:51;23.80;9.00
9271;DHT22;4673;53.458;9.940;2023-06-14T11:07:35;23.80;9.20
9271;DHT22;4673;53.458;9.940;2023-06-14T11:10:37;24.20;9.10
9271;DHT22;4673;53.458;9.940;2023-06-14T11:13:04;24.60;7.60
9271;DHT22;4673;53.458;9.940;2023-06-14T11:15:30;24.90;6.40
9271;DHT22;4673;53.458;9.940;2023-06-14T11:17:57;25.10;6.40
9271;DHT22;4673;53.458;9.940;2023-06-14T11:20:26;25.50;5.00
9271;DHT22;4673;53.458;9.940;2023-06-14T11:22:52;25.70;5.00
9271;DHT22;4673;53.458;9.940;2023-06-14T11:25:18;25.90;5.00
9271;DHT22;4673;53.458;9.940;2023-06-14T11:27:44;25.80;5.00
9271;DHT22;4673;53.458;9.940;2023-06-14T11:30:11;25.80;5.00
9271;DHT22;4673;53.458;9.940;2023-06-14T11:32:37;25.70;5.00
9271;DHT22;4673;53.458;9.940;2023-06-14T11:35:04;25.30;5.00
9271;DHT22;4673;53.458;9.940;2023-06-14T11:37:33;24.50;5.00
9271;DHT22;4673;53.458;9.940;2023-06-14T11:39:59;24.40;5.80
9271;DHT22;4673;53.458;9.940;2023-06-14T11:42:28;24.40;6.60
9271;DHT22;4673;53.458;9.940;2023-06-14T11:44:55;24.40;6.50
9271;DHT22;4673;53.458;9.940;2023-06-14T11:47:22;24.30;7.00
9271;DHT22;4673;53.458;9.940;2023-06-14T11:49:48;24.40;7.40
9271;DHT22;4673;53.458;9.940;2023-06-14T11:52:14;24.60;7.10
9271;DHT22;4673;53.458;9.940;2023-06-14T11:54:40;24.60;5.90
9271;DHT22;4673;53.458;9.940;2023-06-14T11:57:07;24.60;6.00
9271;DHT22;4673;53.458;9.940;2023-06-14T11:59:42;24.70;5.90
9271;DHT22;4673;53.458;9.940;2023-06-14T12:02:10;24.60;5.90
9271;DHT22;4673;53.458;9.940;2023-06-14T12:04:41;24.70;5.40
9271;DHT22;4673;53.458;9.940;2023-06-14T12:07:14;24.40;6.30
9271;DHT22;4673;53.458;9.940;2023-06-14T12:12:21;24.60;6.70
9271;DHT22;4673;53.458;9.940;2023-06-14T12:14:47;24.80;6.40
9271;DHT22;4673;53.458;9.940;2023-06-14T12:17:13;25.00;5.10
9271;DHT22;4673;53.458;9.940;2023-06-14T12:19:43;25.10;5.00
9271;DHT22;4673;53.458;9.940;2023-06-14T12:22:16;25.10;5.00
9271;DHT22;4673;53.458;9.940;2023-06-14T12:24:45;25.20;5.00
9271;DHT22;4673;53.458;9.940;2023-06-14T12:27:12;25.40;5.00
9271;DHT22;4673;53.458;9.940;2023-06-14T12:29:42;25.60;5.00
9271;DHT22;4673;53.458;9.940;2023-06-14T12:32:11;25.90;5.00
9271;DHT22;4673;53.458;9.940;2023-06-14T12:34:37;26.00;5.00
9271;DHT22;4673;53.458;9.940;2023-06-14T12:37:03;26.20;5.00
9271;DHT22;4673;53.458;9.940;2023-06-14T12:39:31;26.50;5.00
9271;DHT22;4673;53.458;9.940;2023-06-14T12:41:58;26.80;5.00
9271;DHT22;4673;53.458;9.940;2023-06-14T12:44:24;26.40;5.00
9271;DHT22;4673;53.458;9.940;2023-06-14T12:46:50;26.10;5.00
9271;DHT22;4673;53.458;9.940;2023-06-14T12:49:18;25.90;5.00
9271;DHT22;4673;53.458;9.940;2023-06-14T12:51:45;25.60;5.00
9271;DHT22;4673;53.458;9.940;2023-06-14T12:54:11;25.50;5.00
9271;DHT22;4673;53.458;9.940;2023-06-14T12:56:37;25.30;5.00
9271;DHT22;4673;53.458;9.940;2023-06-14T12:59:03;25.30;5.00
9271;DHT22;4673;53.458;9.940;2023-06-14T13:01:28;25.30;5.00
9271;DHT22;4673;53.458;9.940;2023-06-14T13:03:54;25.20;5.00
9271;DHT22;4673;53.458;9.940;2023-06-14T13:06:23;25.40;5.00
9271;DHT22;4673;53.458;9.940;2023-06-14T13:08:50;25.90;5.00
9271;DHT22;4673;53.458;9.940;2023-06-14T13:11:15;26.50;5.00
9271;DHT22;4673;53.458;9.940;2023-06-14T13:13:41;26.90;5.00
9271;DHT22;4673;53.458;9.940;2023-06-14T13:16:07;27.30;5.00
9271;DHT22;4673;53.458;9.940;2023-06-14T13:18:33;27.10;5.00
9271;DHT22;4673;53.458;9.940;2023-06-14T13:20:59;26.60;5.00
9271;DHT22;4673;53.458;9.940;2023-06-14T13:23:24;26.20;5.00
9271;DHT22;4673;53.458;9.940;2023-06-14T13:25:50;25.70;5.00
9271;DHT22;4673;53.458;9.940;2023-06-14T13:28:16;25.40;5.00
9271;DHT22;4673;53.458;9.940;2023-06-14T13:30:42;25.10;5.00
9271;DHT22;4673;53.458;9.940;2023-06-14T13:33:08;24.70;5.00
9271;DHT22;4673;53.458;9.940;2023-06-14T13:35:33;24.60;5.00
9271;DHT22;4673;53.458;9.940;2023-06-14T13:38:00;24.60;5.00
9271;DHT22;4673;53.458;9.940;2023-06-14T13:40:26;24.70;5.00
9271;DHT22;4673;53.458;9.940;2023-06-14T13:42:51;25.00;5.00
9271;DHT22;4673;53.458;9.940;2023-06-14T13:45:17;25.40;5.00
9271;DHT22;4673;53.458;9.940;2023-06-14T13:47:43;25.30;5.00
9271;DHT22;4673;53.458;9.940;2023-06-14T13:50:09;24.80;5.00
9271;DHT22;4673;53.458;9.940;2023-06-14T13:52:34;24.70;5.00
9271;DHT22;4673;53.458;9.940;2023-06-14T13:55:00;24.60;5.00
9271;DHT22;4673;53.458;9.940;2023-06-14T13:57:26;24.40;5.00
9271;DHT22;4673;53.458;9.940;2023-06-14T13:59:52;24.20;5.00
9271;DHT22;4673;53.458;9.940;2023-06-14T14:02:20;24.00;5.00
9271;DHT22;4673;53.458;9.940;2023-06-14T14:04:46;24.00;5.00
9271;DHT22;4673;53.458;9.940;2023-06-14T14:07:18;24.00;5.00
9271;DHT22;4673;53.458;9.940;2023-06-14T14:09:44;24.10;5.00
9271;DHT22;4673;53.458;9.940;2023-06-14T14:12:10;24.50;5.00
9271;DHT22;4673;53.458;9.940;2023-06-14T14:14:36;24.70;5.00
9271;DHT22;4673;53.458;9.940;2023-06-14T14:17:02;25.00;5.00
9271;DHT22;4673;53.458;9.940;2023-06-14T14:19:28;25.10;5.00
9271;DHT22;4673;53.458;9.940;2023-06-14T14:21:54;25.20;5.00
9271;DHT22;4673;53.458;9.940;2023-06-14T14:24:19;25.40;5.00
9271;DHT22;4673;53.458;9.940;2023-06-14T14:26:45;25.50;5.00
9271;DHT22;4673;53.458;9.940;2023-06-14T14:29:14;25.50;5.00
9271;DHT22;4673;53.458;9.940;2023-06-14T14:31:39;25.30;5.00
9271;DHT22;4673;53.458;9.940;2023-06-14T14:34:05;24.80;5.00
9271;DHT22;4673;53.458;9.940;2023-06-14T14:36:31;24.60;5.00
9271;DHT22;4673;53.458;9.940;2023-06-14T14:38:58;24.40;5.00
9271;DHT22;4673;53.458;9.940;2023-06-14T14:41:24;24.30;5.00
9271;DHT22;4673;53.458;9.940;2023-06-14T14:43:50;24.30;5.00
9271;DHT22;4673;53.458;9.940;2023-06-14T14:46:15;24.50;5.00
9271;DHT22;4673;53.458;9.940;2023-06-14T14:48:42;24.70;5.00
9271;DHT22;4673;53.458;9.940;2023-06-14T14:51:08;25.00;5.00
9271;DHT22;4673;53.458;9.940;2023-06-14T14:53:33;24.70;5.00
9271;DHT22;4673;53.458;9.940;2023-06-14T14:55:59;24.70;5.00
9271;DHT22;4673;53.458;9.940;2023-06-14T14:58:25;24.70;5.00
9271;DHT22;4673;53.458;9.940;2023-06-14T15:00:50;24.70;5.00
9271;DHT22;4673;53.458;9.940;2023-06-14T15:03:16;24.80;5.00
9271;DHT22;4673;53.458;9.940;2023-06-14T15:05:42;25.00;5.00
9271;DHT22;4673;53.458;9.940;2023-06-14T15:08:08;25.20;5.00
9271;DHT22;4673;53.458;9.940;2023-06-14T15:10:37;25.40;5.00
9271;DHT22;4673;53.458;9.940;2023-06-14T15:13:06;25.20;5.00
9271;DHT22;4673;53.458;9.940;2023-06-14T15:15:32;24.80;5.00
9271;DHT22;4673;53.458;9.940;2023-06-14T15:17:58;24.50;5.00
9271;DHT22;4673;53.458;9.940;2023-06-14T15:20:24;24.30;5.00
9271;DHT22;4673;53.458;9.940;2023-06-14T15:22:49;24.00;5.00
9271;DHT22;4673;53.458;9.940;2023-06-14T15:25:15;24.00;5.00
9271;DHT22;4673;53.458;9.940;2023-06-14T15:27:41;24.00;5.00
9271;DHT22;4673;53.458;9.940;2023-06-14T15:30:07;24.00;5.00
9271;DHT22;4673;53.458;9.940;2023-06-14T15:32:32;24.20;5.00
9271;DHT22;4673;53.458;9.940;2023-06-14T15:34:58;24.30;5.00
9271;DHT22;4673;53.458;9.940;2023-06-14T15:37:24;24.50;5.00
9271;DHT22;4673;53.458;9.940;2023-06-14T15:39:49;24.50;5.00
9271;DHT22;4673;53.458;9.940;2023-06-14T15:42:15;24.60;5.00
9271;DHT22;4673;53.458;9.940;2023-06-14T15:44:41;24.70;5.00
9271;DHT22;4673;53.458;9.940;2023-06-14T15:47:07;24.80;5.00
9271;DHT22;4673;53.458;9.940;2023-06-14T15:49:33;25.00;5.00
9271;DHT22;4673;53.458;9.940;2023-06-14T15:51:59;24.80;5.00
9271;DHT22;4673;53.458;9.940;2023-06-14T15:54:27;24.90;5.00
9271;DHT22;4673;53.458;9.940;2023-06-14T15:56:52;24.70;5.00
9271;DHT22;4673;53.458;9.940;2023-06-14T15:59:18;24.60;5.00
9271;DHT22;4673;53.458;9.940;2023-06-14T16:01:44;24.50;5.00
9271;DHT22;4673;53.458;9.940;2023-06-14T16:04:09;24.40;5.00
9271;DHT22;4673;53.458;9.940;2023-06-14T16:06:35;24.40;5.00
9271;DHT22;4673;53.458;9.940;2023-06-14T16:09:02;24.50;5.00
9271;DHT22;4673;53.458;9.940;2023-06-14T16:11:28;24.40;5.00
9271;DHT22;4673;53.458;9.940;2023-06-14T16:13:54;24.30;5.00
9271;DHT22;4673;53.458;9.940;2023-06-14T16:16:21;24.30;5.00
9271;DHT22;4673;53.458;9.940;2023-06-14T16:18:47;24.10;5.00